createdAt,value
2023-03-11T00:02:02.268Z,99.90
2023-03-11T00:04:32.404Z,99.90
2023-03-11T00:08:08.882Z,99.90
2023-03-11T00:10:08.585Z,99.90
2023-03-11T00:12:38.190Z,99.90
2023-03-11T00:15:13.220Z,99.90
2023-03-11T00:17:42.867Z,99.90
2023-03-11T00:20:22.484Z,99.90
2023-03-11T00:23:02.808Z,99.90
2023-03-11T00:25:33.896Z,99.90
2023-03-11T00:28:01.088Z,99.90
2023-03-11T00:30:54.920Z,99.90
2023-03-11T00:33:23.338Z,99.90
2023-03-11T00:35:58.647Z,99.90
2023-03-11T00:38:25.735Z,99.90
2023-03-11T00:40:54.879Z,99.90
2023-03-11T00:43:24.103Z,99.90
2023-03-11T00:45:51.302Z,99.90
2023-03-11T00:48:27.397Z,99.90
2023-03-11T00:50:54.451Z,99.90
2023-03-11T00:53:22.060Z,99.90
2023-03-11T00:55:48.842Z,99.90
2023-03-11T00:58:15.722Z,99.90
2023-03-11T01:00:42.800Z,99.90
2023-03-11T01:03:16.257Z,99.90
2023-03-11T01:05:46.063Z,99.90
2023-03-11T01:08:20.357Z,99.90
2023-03-11T01:10:47.377Z,99.90
2023-03-11T01:13:14.523Z,99.90
2023-03-11T01:15:43.958Z,99.90
2023-03-11T01:18:18.560Z,99.90
2023-03-11T01:20:50.822Z,99.90
2023-03-11T01:23:21.727Z,99.90
2023-03-11T01:25:48.809Z,99.90
2023-03-11T01:28:15.704Z,99.90
2023-03-11T01:30:43.342Z,99.90
2023-03-11T01:33:18.292Z,99.90
2023-03-11T01:35:46.144Z,99.90
2023-03-11T01:38:13.205Z,99.90
2023-03-11T01:40:51.042Z,99.90
2023-03-11T01:43:46.344Z,99.90
2023-03-11T01:46:31.476Z,99.90
2023-03-11T01:49:01.061Z,99.90
2023-03-11T01:51:35.830Z,99.90
2023-03-11T01:54:10.773Z,99.90
2023-03-11T01:56:39.264Z,99.90
2023-03-11T01:59:08.918Z,99.90
2023-03-11T02:01:40.352Z,99.90
2023-03-11T02:04:07.030Z,99.90
2023-03-11T02:06:34.566Z,99.90
2023-03-11T02:09:02.014Z,99.90
2023-03-11T02:11:31.019Z,99.90
2023-03-11T02:14:02.595Z,99.90
2023-03-11T02:16:29.590Z,99.90
2023-03-11T02:19:05.367Z,99.90
2023-03-11T02:21:34.384Z,99.90
2023-03-11T02:24:21.304Z,99.90
2023-03-11T02:27:08.126Z,99.90
2023-03-11T02:29:37.629Z,99.90
2023-03-11T02:32:09.472Z,99.90
2023-03-11T02:34:39.604Z,99.90
2023-03-11T02:37:11.769Z,99.90
2023-03-11T02:39:50.305Z,99.90
2023-03-11T02:42:26.149Z,99.90
2023-03-11T02:45:04.556Z,99.90
2023-03-11T02:47:32.422Z,99.90
2023-03-11T02:49:59.190Z,99.90
2023-03-11T02:52:28.326Z,99.90
2023-03-11T02:54:55.501Z,99.90
2023-03-11T02:57:22.759Z,99.90
2023-03-11T02:59:58.220Z,99.90
2023-03-11T03:02:25.152Z,99.90
2023-03-11T03:04:52.012Z,99.90
2023-03-11T03:07:18.816Z,99.90
2023-03-11T03:09:45.662Z,99.90
2023-03-11T03:12:12.530Z,99.90
2023-03-11T03:14:39.349Z,99.90
2023-03-11T03:17:06.356Z,99.90
2023-03-11T03:19:33.346Z,99.90
2023-03-11T03:22:00.114Z,99.90
2023-03-11T03:24:26.897Z,99.90
2023-03-11T03:26:53.661Z,99.90
2023-03-11T03:29:20.583Z,99.90
2023-03-11T03:31:47.581Z,99.90
2023-03-11T03:34:14.656Z,99.90
2023-03-11T03:36:41.455Z,99.90
2023-03-11T03:39:08.270Z,99.90
2023-03-11T03:41:35.099Z,99.90
2023-03-11T03:44:01.953Z,99.90
2023-03-11T03:46:28.949Z,99.90
2023-03-11T03:48:56.291Z,99.90
2023-03-11T03:51:23.219Z,99.90
2023-03-11T03:53:49.976Z,99.90
2023-03-11T03:56:18.099Z,99.90
2023-03-11T03:58:45.926Z,99.90
2023-03-11T04:01:13.480Z,99.90
2023-03-11T04:03:40.902Z,99.90
2023-03-11T04:06:18.912Z,99.90
2023-03-11T04:08:45.771Z,99.90
2023-03-11T04:11:13.246Z,99.90
2023-03-11T04:13:40.335Z,99.90
2023-03-11T04:16:08.050Z,99.90
2023-03-11T04:18:35.478Z,99.90
2023-03-11T04:21:06.690Z,99.90
2023-03-11T04:23:33.717Z,99.90
2023-03-11T04:26:00.962Z,99.90
2023-03-11T04:28:28.246Z,99.90
2023-03-11T04:30:55.287Z,99.90
2023-03-11T04:33:22.377Z,99.90
2023-03-11T04:35:49.212Z,99.90
2023-03-11T04:38:16.036Z,99.90
2023-03-11T04:40:42.861Z,99.90
2023-03-11T04:43:09.686Z,99.90
2023-03-11T04:45:39.011Z,99.90
2023-03-11T04:48:05.869Z,99.90
2023-03-11T04:50:32.770Z,99.90
2023-03-11T04:52:59.630Z,99.90
2023-03-11T04:55:26.757Z,99.90
2023-03-11T04:57:53.601Z,99.90
2023-03-11T05:00:25.127Z,99.90
2023-03-11T05:02:52.579Z,99.90
2023-03-11T05:05:20.311Z,99.90
2023-03-11T05:07:47.719Z,99.90
2023-03-11T05:10:15.547Z,99.90
2023-03-11T05:12:42.767Z,99.90
2023-03-11T05:15:10.148Z,99.90
2023-03-11T05:17:36.931Z,99.90
2023-03-11T05:20:07.489Z,99.90
2023-03-11T05:22:34.898Z,99.90
2023-03-11T05:25:01.817Z,99.90
2023-03-11T05:27:28.707Z,99.90
2023-03-11T05:29:55.527Z,99.90
2023-03-11T05:32:22.540Z,99.90
2023-03-11T05:34:50.574Z,99.90
2023-03-11T05:37:17.593Z,99.90
2023-03-11T05:39:45.454Z,99.90
2023-03-11T05:42:12.499Z,99.90
2023-03-11T05:44:39.438Z,99.90
2023-03-11T05:47:06.373Z,99.90
2023-03-11T05:49:33.324Z,99.90
2023-03-11T05:52:00.145Z,99.90
2023-03-11T05:54:26.978Z,99.90
2023-03-11T05:56:53.827Z,99.90
2023-03-11T05:59:20.724Z,99.90
2023-03-11T06:01:47.594Z,99.90
2023-03-11T06:04:14.503Z,99.90
2023-03-11T06:06:42.440Z,99.90
2023-03-11T06:09:15.670Z,99.90
2023-03-11T06:11:42.693Z,99.90
2023-03-11T06:14:15.249Z,99.90
2023-03-11T06:16:42.451Z,99.90
2023-03-11T06:19:09.898Z,99.90
2023-03-11T06:21:36.842Z,99.90
2023-03-11T06:24:05.055Z,99.90
2023-03-11T06:26:31.877Z,99.90
2023-03-11T06:28:58.795Z,99.90
2023-03-11T06:31:28.128Z,99.90
2023-03-11T06:33:59.322Z,99.90
2023-03-11T06:36:27.000Z,99.90
2023-03-11T06:38:55.086Z,99.90
2023-03-11T06:41:22.516Z,99.90
2023-03-11T06:43:50.560Z,99.90
2023-03-11T06:46:20.463Z,99.90
2023-03-11T06:48:51.817Z,99.90
2023-03-11T06:51:23.217Z,99.90
2023-03-11T06:53:50.655Z,99.90
2023-03-11T06:56:17.507Z,99.90
2023-03-11T06:58:44.806Z,99.90
2023-03-11T07:01:26.118Z,99.90
2023-03-11T07:03:53.289Z,99.90
2023-03-11T07:06:25.071Z,99.90
2023-03-11T07:08:53.038Z,99.90
2023-03-11T07:11:27.928Z,99.90
2023-03-11T07:13:55.273Z,99.90
2023-03-11T07:16:27.545Z,99.90
2023-03-11T07:19:00.934Z,99.90
2023-03-11T07:21:29.388Z,99.90
2023-03-11T07:23:58.792Z,99.90
2023-03-11T07:26:27.697Z,99.90
2023-03-11T07:28:58.049Z,99.90
2023-03-11T07:31:31.123Z,99.90
2023-03-11T07:34:00.279Z,99.90
2023-03-11T07:36:28.563Z,99.90
2023-03-11T07:39:04.358Z,99.90
2023-03-11T07:41:33.745Z,99.90
2023-03-11T07:44:11.656Z,99.90
2023-03-11T07:46:38.843Z,99.90
2023-03-11T07:49:11.968Z,99.90
2023-03-11T07:51:46.262Z,99.90
2023-03-11T07:54:13.385Z,99.90
2023-03-11T07:56:43.426Z,99.90
2023-03-11T07:59:10.658Z,99.90
2023-03-11T08:01:40.848Z,99.90
2023-03-11T08:04:10.816Z,99.90
2023-03-11T08:06:40.596Z,99.90
2023-03-11T08:09:09.282Z,99.90
2023-03-11T08:11:36.884Z,99.90
2023-03-11T08:14:04.061Z,98.10
2023-03-11T08:16:31.802Z,96.10
2023-03-11T08:18:58.704Z,94.20
2023-03-11T08:21:28.862Z,93.00
2023-03-11T08:23:58.917Z,91.50
2023-03-11T08:26:26.273Z,90.80
2023-03-11T08:28:53.096Z,90.20
2023-03-11T08:31:25.873Z,89.10
2023-03-11T08:33:54.607Z,85.40
2023-03-11T08:36:21.951Z,86.10
2023-03-11T08:38:48.987Z,84.90
2023-03-11T08:41:16.055Z,81.90
2023-03-11T08:43:42.999Z,80.20
2023-03-11T08:46:20.680Z,79.00
2023-03-11T08:48:47.493Z,76.30
2023-03-11T08:51:14.913Z,77.00
2023-03-11T08:53:41.994Z,75.60
2023-03-11T08:56:09.726Z,75.40
2023-03-11T08:58:36.598Z,75.00
2023-03-11T09:01:05.992Z,73.90
2023-03-11T09:03:34.079Z,73.00
2023-03-11T09:06:04.323Z,72.70
2023-03-11T09:08:31.399Z,72.30
2023-03-11T09:10:58.223Z,71.80
2023-03-11T09:13:24.998Z,70.80
2023-03-11T09:15:52.637Z,72.30
2023-03-11T09:18:19.501Z,73.50
2023-03-11T09:20:46.548Z,75.40
2023-03-11T09:23:15.350Z,77.10
2023-03-11T09:25:42.470Z,78.10
2023-03-11T09:28:09.344Z,79.70
2023-03-11T09:30:36.112Z,80.80
2023-03-11T09:33:02.919Z,81.00
2023-03-11T09:35:29.743Z,81.10
2023-03-11T09:37:56.626Z,81.10
2023-03-11T09:40:25.614Z,80.70
2023-03-11T09:43:16.919Z,81.40
2023-03-11T09:45:55.224Z,80.70
2023-03-11T09:48:36.201Z,80.00
2023-03-11T09:54:14.306Z,77.90
2023-03-11T09:56:44.426Z,82.40
2023-03-11T09:59:35.666Z,81.20
2023-03-11T10:02:04.113Z,77.90
2023-03-11T10:04:56.965Z,78.30
2023-03-11T10:07:36.357Z,72.50
2023-03-11T10:10:03.794Z,72.60
2023-03-11T10:12:37.249Z,73.80
2023-03-11T10:15:23.288Z,74.30
2023-03-11T10:18:23.720Z,74.60
2023-03-11T10:21:00.773Z,75.70
2023-03-11T10:23:36.996Z,76.20
2023-03-11T10:26:15.542Z,75.60
2023-03-11T10:28:52.235Z,73.00
2023-03-11T10:31:28.025Z,72.60
2023-03-11T10:34:14.167Z,71.00
2023-03-11T10:36:52.525Z,69.50
2023-03-11T10:39:20.613Z,69.20
2023-03-11T10:41:53.748Z,69.70
2023-03-11T10:44:40.969Z,66.10
2023-03-11T10:47:16.782Z,68.10
2023-03-11T10:49:43.580Z,66.30
2023-03-11T10:52:10.467Z,67.00
2023-03-11T10:54:58.657Z,66.60
2023-03-11T10:57:29.098Z,64.70
2023-03-11T10:59:58.159Z,64.40
2023-03-11T11:02:42.679Z,63.40
2023-03-11T11:05:17.275Z,64.20
2023-03-11T11:07:45.994Z,65.10
2023-03-11T11:10:18.700Z,65.10
2023-03-11T11:13:00.833Z,61.60
2023-03-11T11:15:33.891Z,60.60
2023-03-11T11:18:06.834Z,61.10
2023-03-11T11:20:34.718Z,59.60
2023-03-11T11:23:03.850Z,58.70
2023-03-11T11:25:44.183Z,57.40
2023-03-11T11:28:17.408Z,57.70
2023-03-11T11:30:56.813Z,55.00
2023-03-11T11:33:41.730Z,55.40
2023-03-11T11:36:16.223Z,53.70
2023-03-11T11:38:43.263Z,52.10
2023-03-11T11:41:15.628Z,52.90
2023-03-11T11:44:00.776Z,50.80
2023-03-11T11:49:36.988Z,47.70
2023-03-11T11:52:08.699Z,48.90
2023-03-11T11:54:44.159Z,48.80
2023-03-11T11:57:13.522Z,47.30
2023-03-11T11:59:42.290Z,48.00
2023-03-11T12:02:21.014Z,45.80
2023-03-11T12:04:58.467Z,46.60
2023-03-11T12:08:03.070Z,44.90
2023-03-11T12:10:37.430Z,46.50
2023-03-11T12:13:23.191Z,45.10
2023-03-11T12:15:59.549Z,44.60
2023-03-11T12:18:35.590Z,42.60
2023-03-11T12:21:23.902Z,42.20
2023-03-11T12:23:56.958Z,41.00
2023-03-11T12:26:30.065Z,41.20
2023-03-11T12:29:16.199Z,40.90
2023-03-11T12:31:48.534Z,41.10
2023-03-11T12:34:21.127Z,38.70
2023-03-11T12:36:49.962Z,37.30
2023-03-11T12:39:36.670Z,37.40
2023-03-11T12:42:17.782Z,35.30
2023-03-11T12:44:48.631Z,35.20
2023-03-11T12:47:15.306Z,35.50
2023-03-11T12:49:44.083Z,40.00
2023-03-11T12:52:13.877Z,35.50
2023-03-11T12:54:46.275Z,34.40
2023-03-11T12:57:31.202Z,33.60
2023-03-11T13:00:23.268Z,34.00
2023-03-11T13:02:56.266Z,34.30
2023-03-11T13:05:46.807Z,35.70
2023-03-11T13:08:23.009Z,34.80
2023-03-11T13:10:51.758Z,35.80
2023-03-11T13:13:35.317Z,37.30
2023-03-11T13:16:14.865Z,36.20
2023-03-11T13:18:44.447Z,36.30
2023-03-11T13:21:32.781Z,35.30
2023-03-11T13:24:54.720Z,35.80
2023-03-11T13:27:37.386Z,34.70
2023-03-11T13:30:17.940Z,35.30
2023-03-11T13:32:50.742Z,35.70
2023-03-11T13:35:43.505Z,34.60
2023-03-11T13:38:38.238Z,35.30
2023-03-11T13:41:15.257Z,35.30
2023-03-11T13:43:48.322Z,33.70
2023-03-11T13:46:38.174Z,34.10
2023-03-11T13:49:45.022Z,34.70
2023-03-11T13:52:22.208Z,34.20
2023-03-11T13:54:53.461Z,33.30
2023-03-11T13:57:28.352Z,33.60
2023-03-11T14:00:05.663Z,35.60
2023-03-11T14:02:32.633Z,33.70
2023-03-11T14:05:17.765Z,33.50
2023-03-11T14:07:44.786Z,34.80
2023-03-11T14:10:22.773Z,34.30
2023-03-11T14:12:49.906Z,34.10
2023-03-11T14:15:26.653Z,35.00
2023-03-11T14:17:54.296Z,34.90
2023-03-11T14:20:25.666Z,35.00
2023-03-11T14:22:55.222Z,35.30
2023-03-11T14:25:31.370Z,35.10
2023-03-11T14:28:01.977Z,35.00
2023-03-11T14:30:33.963Z,34.20
2023-03-11T14:33:04.992Z,34.90
2023-03-11T14:35:34.005Z,35.30
2023-03-11T14:38:01.501Z,36.30
2023-03-11T14:40:42.153Z,36.80
2023-03-11T14:43:11.776Z,37.10
2023-03-11T14:45:41.841Z,37.10
2023-03-11T14:48:27.728Z,36.20
2023-03-11T14:50:58.990Z,37.20
2023-03-11T14:53:48.485Z,37.00
2023-03-11T14:56:21.964Z,37.60
2023-03-11T14:59:08.170Z,37.70
2023-03-11T15:01:41.910Z,36.40
2023-03-11T15:04:11.920Z,36.80
2023-03-11T15:06:42.657Z,37.50
2023-03-11T15:09:18.747Z,35.60
2023-03-11T15:12:01.116Z,34.70
2023-03-11T15:14:29.271Z,35.10
2023-03-11T15:17:23.244Z,36.90
2023-03-11T15:20:09.882Z,37.40
2023-03-11T15:22:43.950Z,38.70
2023-03-11T15:25:19.383Z,38.70
2023-03-11T15:27:47.764Z,39.30
2023-03-11T15:30:31.537Z,39.80
2023-03-11T15:32:59.183Z,40.00
2023-03-11T15:35:30.019Z,40.60
2023-03-11T15:38:22.360Z,40.50
2023-03-11T15:40:59.086Z,40.00
2023-03-11T15:43:32.912Z,40.00
2023-03-11T15:46:03.149Z,40.20
2023-03-11T15:48:36.381Z,41.20
2023-03-11T15:51:04.170Z,42.00
2023-03-11T15:53:33.870Z,42.00
2023-03-11T15:56:15.089Z,41.50
2023-03-11T15:58:42.408Z,41.50
2023-03-11T16:01:10.057Z,41.70
2023-03-11T16:03:39.187Z,42.50
2023-03-11T16:06:08.530Z,43.00
2023-03-11T16:08:35.936Z,43.50
2023-03-11T16:11:03.104Z,43.80
2023-03-11T16:13:30.316Z,42.50
2023-03-11T16:15:59.259Z,42.50
2023-03-11T16:18:26.301Z,43.00
2023-03-11T16:20:55.586Z,43.50
2023-03-11T16:23:48.536Z,43.50
2023-03-11T16:26:24.804Z,43.60
2023-03-11T16:28:51.686Z,43.80
2023-03-11T16:31:19.058Z,44.50
2023-03-11T16:33:46.204Z,44.80
2023-03-11T16:36:13.208Z,45.40
2023-03-11T16:38:50.442Z,45.70
2023-03-11T16:41:17.734Z,46.90
2023-03-11T16:43:45.126Z,46.50
2023-03-11T16:46:12.264Z,47.00
2023-03-11T16:48:39.332Z,47.30
2023-03-11T16:51:09.994Z,47.90
2023-03-11T16:53:37.910Z,48.20
2023-03-11T16:56:05.812Z,48.50
2023-03-11T16:58:40.232Z,48.80
2023-03-11T17:01:07.183Z,49.60
2023-03-11T17:03:42.496Z,50.00
2023-03-11T17:06:12.309Z,50.60
2023-03-11T17:08:39.485Z,51.20
2023-03-11T17:11:13.871Z,51.70
2023-03-11T17:13:41.138Z,52.60
2023-03-11T17:16:08.707Z,52.90
2023-03-11T17:18:39.075Z,53.40
2023-03-11T17:21:10.951Z,54.60
2023-03-11T17:23:38.338Z,55.60
2023-03-11T17:26:13.489Z,56.10
2023-03-11T17:28:44.208Z,57.20
2023-03-11T17:31:15.608Z,57.50
2023-03-11T17:33:43.231Z,57.80
2023-03-11T17:36:16.102Z,58.00
2023-03-11T17:38:44.168Z,57.60
2023-03-11T17:41:13.728Z,58.20
2023-03-11T17:43:40.986Z,58.80
2023-03-11T17:46:14.535Z,59.40
2023-03-11T17:48:42.805Z,60.10
2023-03-11T17:51:12.255Z,60.60
2023-03-11T17:53:40.703Z,61.20
2023-03-11T17:56:11.701Z,61.50
2023-03-11T17:58:42.879Z,61.50
2023-03-11T18:01:28.193Z,61.60
2023-03-11T18:03:55.756Z,62.20
2023-03-11T18:06:23.372Z,62.10
2023-03-11T18:08:50.869Z,62.80
2023-03-11T18:11:24.121Z,63.50
2023-03-11T18:13:51.881Z,64.20
2023-03-11T18:16:24.953Z,64.20
2023-03-11T18:18:52.551Z,64.80
2023-03-11T18:21:25.001Z,64.90
2023-03-11T18:23:54.319Z,65.50
2023-03-11T18:26:24.278Z,65.90
2023-03-11T18:28:59.748Z,66.20
2023-03-11T18:31:36.508Z,67.00
2023-03-11T18:34:12.430Z,67.60
2023-03-11T18:36:41.340Z,67.60
2023-03-11T18:39:15.274Z,67.60
2023-03-11T18:41:51.819Z,67.90
2023-03-11T18:44:20.995Z,68.40
2023-03-11T18:46:49.417Z,68.60
2023-03-11T18:49:16.760Z,68.90
2023-03-11T18:51:43.680Z,69.40
2023-03-11T18:54:11.279Z,69.60
2023-03-11T18:56:38.166Z,69.80
2023-03-11T18:59:08.051Z,70.10
2023-03-11T19:01:35.087Z,70.40
2023-03-11T19:04:03.726Z,70.50
2023-03-11T19:06:30.592Z,70.50
2023-03-11T19:08:58.039Z,70.80
2023-03-11T19:11:26.687Z,71.30
2023-03-11T19:13:54.181Z,72.10
2023-03-11T19:16:23.818Z,72.10
2023-03-11T19:18:51.826Z,72.30
2023-03-11T19:21:18.712Z,72.70
2023-03-11T19:23:49.887Z,73.10
2023-03-11T19:26:16.885Z,73.40
2023-03-11T19:28:46.794Z,73.50
2023-03-11T19:31:15.584Z,73.70
2023-03-11T19:33:47.967Z,73.90
2023-03-11T19:36:17.521Z,74.00
2023-03-11T19:38:45.210Z,74.40
2023-03-11T19:41:14.767Z,74.80
2023-03-11T19:43:42.653Z,75.30
2023-03-11T19:46:12.289Z,75.80
2023-03-11T19:48:39.484Z,76.10
2023-03-11T19:51:06.869Z,76.50
2023-03-11T19:53:38.785Z,76.90
2023-03-11T19:56:06.843Z,77.20
2023-03-11T19:58:34.573Z,77.30
2023-03-11T20:01:04.851Z,77.50
2023-03-11T20:03:31.758Z,77.90
2023-03-11T20:06:05.315Z,78.20
2023-03-11T20:08:36.857Z,78.50
2023-03-11T20:11:07.108Z,78.60
2023-03-11T20:13:37.542Z,78.50
2023-03-11T20:16:06.833Z,78.20
2023-03-11T20:18:33.911Z,78.80
2023-03-11T20:21:06.808Z,78.80
2023-03-11T20:23:34.740Z,79.10
2023-03-11T20:26:11.994Z,79.50
2023-03-11T20:28:39.021Z,79.70
2023-03-11T20:31:14.363Z,80.00
2023-03-11T20:33:41.917Z,80.40
2023-03-11T20:36:11.843Z,80.40
2023-03-11T20:38:44.558Z,80.70
2023-03-11T20:41:11.760Z,81.00
2023-03-11T20:43:39.775Z,81.30
2023-03-11T20:46:10.057Z,81.40
2023-03-11T20:48:39.914Z,81.70
2023-03-11T20:51:13.177Z,82.00
2023-03-11T20:53:40.327Z,82.30
2023-03-11T20:56:13.334Z,82.40
2023-03-11T20:58:43.146Z,82.50
2023-03-11T21:01:19.721Z,82.80
2023-03-11T21:03:48.188Z,83.10
2023-03-11T21:06:28.498Z,83.30
2023-03-11T21:09:01.403Z,83.40
2023-03-11T21:11:33.296Z,83.40
2023-03-11T21:14:00.286Z,83.70
2023-03-11T21:16:37.111Z,83.60
2023-03-11T21:19:08.438Z,83.50
2023-03-11T21:21:36.114Z,83.70
2023-03-11T21:24:04.454Z,83.70
2023-03-11T21:26:32.929Z,83.80
2023-03-11T21:29:00.270Z,84.00
2023-03-11T21:31:30.117Z,84.10
2023-03-11T21:34:03.981Z,84.30
2023-03-11T21:36:31.368Z,84.50
2023-03-11T21:38:58.438Z,84.40
2023-03-11T21:41:27.663Z,84.50
2023-03-11T21:43:57.953Z,84.50
2023-03-11T21:46:34.080Z,84.70
2023-03-11T21:49:04.914Z,84.70
2023-03-11T21:51:32.247Z,84.90
2023-03-11T21:53:59.439Z,85.00
2023-03-11T21:56:33.460Z,85.00
2023-03-11T21:59:01.599Z,85.10
2023-03-11T22:01:29.312Z,85.00
2023-03-11T22:03:56.711Z,85.20
2023-03-11T22:06:24.311Z,85.40
2023-03-11T22:08:54.451Z,85.60
2023-03-11T22:11:21.662Z,85.90
2023-03-11T22:13:51.067Z,86.20
2023-03-11T22:16:19.192Z,86.60
2023-03-11T22:18:46.868Z,86.90
2023-03-11T22:21:21.166Z,87.10
2023-03-11T22:23:49.729Z,87.40
2023-03-11T22:26:16.965Z,87.60
2023-03-11T22:28:48.431Z,87.80
2023-03-11T22:31:15.492Z,88.00
2023-03-11T22:33:42.457Z,88.00
2023-03-11T22:36:13.557Z,87.70
2023-03-11T22:38:45.222Z,87.90
2023-03-11T22:41:14.117Z,88.20
2023-03-11T22:43:41.166Z,88.40
2023-03-11T22:46:08.505Z,88.70
2023-03-11T22:48:35.842Z,88.90
2023-03-11T22:51:05.251Z,89.20
2023-03-11T22:53:34.537Z,89.40
2023-03-11T22:56:08.957Z,89.70
2023-03-11T22:58:36.524Z,89.90
2023-03-11T23:01:05.497Z,90.00
2023-03-11T23:03:36.025Z,90.10
2023-03-11T23:06:09.304Z,90.20
2023-03-11T23:08:37.229Z,90.20
2023-03-11T23:11:06.839Z,90.20
2023-03-11T23:13:35.887Z,90.20
2023-03-11T23:16:08.149Z,90.30
2023-03-11T23:18:35.666Z,90.30
2023-03-11T23:21:02.610Z,90.30
2023-03-11T23:23:29.538Z,90.30
2023-03-11T23:25:56.545Z,90.30
2023-03-11T23:28:23.274Z,90.30
2023-03-11T23:30:50.071Z,90.30
2023-03-11T23:33:16.847Z,90.30
2023-03-11T23:35:43.919Z,90.30
2023-03-11T23:38:10.816Z,90.40
2023-03-11T23:40:40.631Z,90.40
2023-03-11T23:43:07.474Z,90.30
2023-03-11T23:45:34.186Z,90.30
2023-03-11T23:48:00.927Z,90.30
2023-03-11T23:50:27.867Z,90.00
2023-03-11T23:52:54.684Z,88.80
2023-03-11T23:55:21.549Z,87.60
2023-03-11T23:57:48.402Z,86.30
